Time;durP1;ratioP1;P1;durP2;ratioP2;P2;SDS_P1;SDS_P2;PMS_P1;PMS_P2;Temp;Humidity;BMP_temperature;BMP_pressure;BME280_temperature;BME280_humidity;BME280_pressure;Samples;Min_cycle;Max_cycle;Signal;HPM_P1;HPM_P2
2022/06/25 00:01:29;;;;;;;7.03;2.85;;;15.60;99.90;;;14.95;100.00;97387.84;5038745;28;20129;-70
2022/06/25 00:03:57;;;;;;;7.80;3.70;;;15.70;99.90;;;14.91;100.00;97395.03;5042179;28;20076;-70
2022/06/25 00:06:24;;;;;;;11.30;3.10;;;15.60;99.90;;;15.00;100.00;97393.59;5040445;28;20049;-70
2022/06/25 00:08:54;;;;;;;5.57;2.80;;;15.70;99.90;;;15.06;100.00;97393.22;5039859;28;20067;-69
2022/06/25 00:14:11;;;;;;;7.35;3.00;;;15.70;99.90;;;14.96;100.00;97403.44;5040784;28;20102;-71
2022/06/25 00:16:38;;;;;;;6.03;3.25;;;15.70;99.90;;;14.92;100.00;97406.34;5038280;28;20396;-69
2022/06/25 00:19:05;;;;;;;8.18;3.35;;;15.70;99.90;;;14.90;100.00;97403.81;5041882;28;20076;-70
2022/06/25 00:21:32;;;;;;;6.32;3.35;;;15.70;99.90;;;14.94;100.00;97405.31;5042871;28;20118;-70
2022/06/25 00:23:59;;;;;;;5.88;2.38;;;15.70;99.90;;;15.06;100.00;97408.91;5042048;28;20084;-70
2022/06/25 00:26:27;;;;;;;9.10;3.15;;;15.70;99.90;;;14.97;100.00;97399.03;5038553;28;20455;-70
2022/06/25 00:28:54;;;;;;;6.60;2.90;;;15.60;99.90;;;14.93;100.00;97406.22;5041071;28;20987;-70
2022/06/25 00:31:21;;;;;;;9.35;3.33;;;15.70;99.90;;;14.92;100.00;97401.94;5039791;28;20520;-70
2022/06/25 00:33:48;;;;;;;4.63;2.30;;;15.60;99.90;;;14.96;100.00;97399.97;5039762;28;20119;-71
2022/06/25 00:36:15;;;;;;;4.57;2.67;;;15.60;99.90;;;14.97;100.00;97409.50;5040641;28;20126;-71
2022/06/25 00:38:42;;;;;;;7.50;3.22;;;15.60;99.90;;;14.92;100.00;97403.72;5038599;28;20465;-71
2022/06/25 00:41:12;;;;;;;6.95;2.60;;;15.60;99.90;;;14.93;100.00;97406.22;5042351;28;20156;-71
2022/06/25 00:43:40;;;;;;;8.27;2.75;;;15.60;99.90;;;14.90;100.00;97403.81;5039300;28;20543;-70
2022/06/25 00:46:07;;;;;;;6.38;3.20;;;15.60;99.90;;;14.89;100.00;97412.56;5040732;28;20076;-71
2022/06/25 00:48:34;;;;;;;8.32;3.58;;;15.60;99.90;;;14.77;100.00;97414.19;5039758;28;20139;-71
2022/06/25 00:51:15;;;;;;;14.18;4.28;;;15.60;99.90;;;14.77;100.00;97415.97;5043519;28;20480;-71
2022/06/25 00:53:45;;;;;;;9.18;2.83;;;15.60;99.90;;;14.76;100.00;97420.34;5041164;28;20510;-70
2022/06/25 00:56:14;;;;;;;5.03;2.90;;;15.60;99.90;;;14.84;100.00;97420.69;5038025;28;20076;-70
2022/06/25 00:58:44;;;;;;;7.60;3.80;;;15.60;99.90;;;14.77;100.00;97421.19;5038376;28;20091;-71
2022/06/25 01:01:13;;;;;;;10.00;2.92;;;15.60;99.90;;;14.89;100.00;97427.41;5041017;28;20419;-71
2022/06/25 01:03:40;;;;;;;4.75;3.15;;;15.60;99.90;;;14.75;100.00;97423.88;5038321;28;20045;-71
2022/06/25 01:06:08;;;;;;;7.05;2.92;;;15.60;99.90;;;14.79;100.00;97428.00;5038353;28;20131;-71
2022/06/25 01:08:36;;;;;;;6.47;3.10;;;15.50;99.90;;;14.68;100.00;97430.44;5044616;28;20098;-71
2022/06/25 01:11:03;;;;;;;7.88;3.35;;;15.50;99.90;;;14.77;100.00;97432.47;5027997;28;20080;-70
2022/06/25 01:13:30;;;;;;;7.15;2.97;;;15.50;99.90;;;14.76;100.00;97435.19;5037747;28;20646;-70
2022/06/25 01:15:58;;;;;;;5.45;3.05;;;15.50;99.90;;;14.69;100.00;97439.09;5036399;28;20128;-71
2022/06/25 01:18:25;;;;;;;4.63;2.70;;;15.50;99.90;;;14.72;100.00;97441.53;5045694;28;20051;-70
2022/06/25 01:20:52;;;;;;;3.78;3.05;;;15.50;99.90;;;14.75;100.00;97447.41;5039251;28;20045;-70
2022/06/25 01:23:19;;;;;;;4.75;2.55;;;15.50;99.90;;;14.79;100.00;97450.69;5036962;28;20166;-70
2022/06/25 01:25:47;;;;;;;4.32;2.72;;;15.40;99.90;;;14.80;100.00;97444.50;5037106;28;20414;-70
2022/06/25 01:28:14;;;;;;;6.35;2.50;;;15.40;99.90;;;14.75;100.00;97443.94;5038348;28;20148;-71
2022/06/25 01:30:41;;;;;;;9.75;3.22;;;15.50;99.90;;;14.74;100.00;97452.75;5037892;28;20095;-71
2022/06/25 01:33:09;;;;;;;6.88;2.15;;;15.50;99.90;;;14.72;100.00;97446.75;5037685;28;20423;-71
2022/06/25 01:35:36;;;;;;;6.57;2.67;;;15.40;99.90;;;14.72;100.00;97457.22;5040357;28;20057;-71
2022/06/25 01:38:03;;;;;;;3.00;2.00;;;15.40;99.90;;;14.72;100.00;97457.22;5042660;28;20485;-70
2022/06/25 01:40:31;;;;;;;7.15;2.63;;;15.40;99.90;;;14.68;100.00;97463.56;5048233;28;20107;-70
2022/06/25 01:42:59;;;;;;;5.10;2.83;;;15.40;99.90;;;14.70;100.00;97461.69;5046690;28;20087;-70
2022/06/25 01:45:32;;;;;;;5.85;2.42;;;15.30;99.90;;;14.73;100.00;97469.34;5043686;28;20114;-70
2022/06/25 01:48:01;;;;;;;6.00;2.20;;;15.40;99.90;;;14.78;100.00;97460.28;5036689;28;20053;-70
2022/06/25 01:50:29;;;;;;;6.57;1.90;;;15.40;99.90;;;14.78;100.00;97475.97;5035076;28;20136;-70
2022/06/25 01:52:56;;;;;;;5.22;1.80;;;15.40;99.90;;;14.80;100.00;97476.72;5041274;28;20121;-70
2022/06/25 01:55:23;;;;;;;4.53;2.00;;;15.40;99.90;;;14.79;100.00;97474.19;5038783;28;20579;-70
2022/06/25 01:57:51;;;;;;;6.88;2.47;;;15.40;99.90;;;14.75;100.00;97476.13;5043996;28;20099;-70
2022/06/25 02:00:27;;;;;;;5.75;2.30;;;15.50;99.90;;;14.80;100.00;97470.63;5044230;28;20152;-70
2022/06/25 02:02:54;;;;;;;8.23;2.50;;;15.50;99.90;;;14.67;100.00;97480.19;5045316;28;20593;-70
2022/06/25 02:08:14;;;;;;;7.38;2.42;;;15.40;99.90;;;14.70;100.00;97472.13;5042649;28;20053;-70
2022/06/25 02:10:41;;;;;;;2.83;1.83;;;15.40;99.90;;;14.64;100.00;97478.56;5043540;28;20120;-70
2022/06/25 02:13:09;;;;;;;6.70;2.30;;;15.40;99.90;;;14.60;100.00;97469.25;5050029;28;20134;-70
2022/06/25 02:15:37;;;;;;;3.95;1.95;;;15.40;99.90;;;14.68;100.00;97464.38;5045641;28;20225;-70
2022/06/25 02:18:04;;;;;;;5.88;2.20;;;15.30;99.90;;;14.70;100.00;97465.13;5049583;28;20077;-70
2022/06/25 02:20:32;;;;;;;5.75;2.22;;;15.30;99.90;;;14.64;100.00;97471.59;5050968;28;20132;-70
2022/06/25 02:22:59;;;;;;;6.65;2.47;;;15.40;99.90;;;14.63;100.00;97472.50;5049661;28;20579;-70
2022/06/25 02:25:26;;;;;;;7.65;3.00;;;15.30;99.90;;;14.49;100.00;97480.31;5043723;28;20508;-70
2022/06/25 02:27:53;;;;;;;5.10;2.13;;;15.30;99.90;;;14.57;100.00;97470.28;5046666;28;20530;-70
2022/06/25 02:30:20;;;;;;;4.43;2.13;;;15.30;99.90;;;14.52;100.00;97479.28;5047832;28;20045;-70
2022/06/25 02:32:47;;;;;;;7.07;2.47;;;15.30;99.90;;;14.52;100.00;97481.91;5045179;28;20515;-70
2022/06/25 02:35:14;;;;;;;2.53;2.15;;;15.30;99.90;;;14.53;100.00;97480.94;5046367;28;20077;-70
2022/06/25 02:37:41;;;;;;;7.07;2.35;;;15.30;99.90;;;14.51;100.00;97485.44;5046938;28;20104;-70
2022/06/25 02:40:09;;;;;;;7.63;2.30;;;15.20;99.90;;;14.54;100.00;97480.91;5048101;28;20147;-71
2022/06/25 02:42:38;;;;;;;6.65;2.70;;;15.20;99.90;;;14.47;100.00;97481.34;5044997;28;20081;-70
2022/06/25 02:45:08;;;;;;;4.80;2.60;;;15.20;99.90;;;14.45;100.00;97473.59;5045334;28;20044;-70
2022/06/25 02:47:35;;;;;;;7.00;2.50;;;15.20;99.90;;;14.49;100.00;97477.69;5045788;28;20044;-70
2022/06/25 02:50:04;;;;;;;4.18;2.28;;;15.20;99.90;;;14.47;100.00;97474.34;5047417;28;20052;-70
2022/06/25 02:52:31;;;;;;;8.27;2.10;;;15.10;99.90;;;14.50;100.00;97473.31;5043939;28;20043;-70
2022/06/25 02:54:58;;;;;;;4.45;2.33;;;15.10;99.90;;;14.48;100.00;97476.00;5044089;28;20124;-70
2022/06/25 03:00:13;;;;;;;7.00;2.40;;;15.10;99.90;;;14.47;100.00;97484.78;5047733;28;20174;-70
2022/06/25 03:02:41;;;;;;;5.10;1.95;;;15.10;99.90;;;14.47;100.00;97484.78;5048021;28;20552;-70
2022/06/25 03:05:09;;;;;;;6.47;2.33;;;15.20;99.90;;;14.51;100.00;97483.66;5047252;28;20063;-70
2022/06/25 03:07:36;;;;;;;5.07;2.17;;;15.10;99.90;;;14.52;100.00;97484.50;5046512;28;20088;-71
2022/06/25 03:10:04;;;;;;;4.13;2.25;;;15.10;99.90;;;14.39;100.00;97477.41;5059820;28;20152;-70
2022/06/25 03:12:31;;;;;;;7.15;3.13;;;15.20;99.90;;;14.35;100.00;97486.34;5047032;28;20108;-70
2022/06/25 03:14:58;;;;;;;7.93;2.72;;;15.20;99.90;;;14.39;100.00;97487.88;5047482;28;20073;-70
2022/06/25 03:17:25;;;;;;;7.32;2.50;;;15.10;99.90;;;14.37;100.00;97478.44;5045620;28;20581;-70
2022/06/25 03:19:52;;;;;;;8.02;2.08;;;15.10;99.90;;;14.52;100.00;97484.50;5046886;28;20108;-70
2022/06/25 03:22:20;;;;;;;6.82;2.20;;;15.10;99.90;;;14.50;100.00;97484.59;5046771;28;20144;-70
2022/06/25 03:24:47;;;;;;;5.38;2.45;;;15.10;99.90;;;14.34;100.00;97479.44;5042085;28;20076;-70
2022/06/25 03:27:14;;;;;;;5.45;2.33;;;15.10;99.90;;;14.35;100.00;97491.59;5044227;28;20102;-70
2022/06/25 03:29:41;;;;;;;4.00;2.45;;;15.10;99.90;;;14.33;100.00;97493.44;5047279;28;20128;-69
2022/06/25 03:32:08;;;;;;;6.68;2.72;;;15.00;99.90;;;14.26;100.00;97491.28;5047962;28;20088;-69
2022/06/25 03:34:35;;;;;;;5.63;2.25;;;15.10;99.90;;;14.37;100.00;97494.09;5046958;28;20095;-70
2022/06/25 03:37:03;;;;;;;7.07;2.88;;;15.00;99.90;;;14.35;100.00;97495.97;5045769;28;20136;-70
2022/06/25 03:39:30;;;;;;;3.58;1.77;;;15.10;99.90;;;14.30;99.92;97503.22;5046875;28;20167;-70
2022/06/25 03:41:57;;;;;;;3.67;2.17;;;15.10;99.90;;;14.40;99.74;97504.38;5044494;28;20124;-70
2022/06/25 03:44:24;;;;;;;5.10;2.50;;;15.10;99.90;;;14.51;99.82;97508.97;5043634;28;20128;-72
2022/06/25 03:46:51;;;;;;;4.22;2.60;;;15.10;99.90;;;14.54;100.00;97506.16;5049934;28;20047;-72
2022/06/25 03:49:18;;;;;;;3.58;2.35;;;15.20;99.90;;;14.61;100.00;97515.31;5047738;28;20083;-70
2022/06/25 03:51:45;;;;;;;4.45;2.28;;;15.30;99.90;;;14.71;100.00;97510.38;5046478;28;20144;-69
2022/06/25 03:54:12;;;;;;;10.70;2.55;;;15.40;99.90;;;14.75;100.00;97514.50;5045542;28;20207;-71
2022/06/25 03:56:39;;;;;;;9.70;2.92;;;15.40;99.90;;;14.76;100.00;97514.41;5042717;28;20053;-71
2022/06/25 03:59:06;;;;;;;7.50;3.33;;;15.40;99.90;;;14.80;100.00;97512.44;5039990;28;20136;-71
2022/06/25 04:01:33;;;;;;;5.95;2.88;;;15.50;99.90;;;14.80;100.00;97513.31;5049358;28;20147;-72
2022/06/25 04:04:00;;;;;;;6.53;2.80;;;15.50;99.90;;;14.87;100.00;97524.22;5046037;28;20129;-70
2022/06/25 04:06:27;;;;;;;7.40;2.70;;;15.60;99.90;;;14.90;100.00;97513.56;5043008;28;20151;-71
2022/06/25 04:08:54;;;;;;;4.82;2.78;;;15.60;99.90;;;14.87;100.00;97512.91;5049236;28;20584;-72
2022/06/25 04:11:21;;;;;;;8.73;2.42;;;15.60;99.90;;;14.82;100.00;97519.28;5049563;28;20127;-71
2022/06/25 04:13:48;;;;;;;6.82;2.60;;;15.60;99.90;;;14.75;100.00;97524.94;5044547;28;20094;-71
2022/06/25 04:16:15;;;;;;;5.95;2.33;;;15.60;99.90;;;14.85;100.00;97519.09;5047221;28;20072;-71
2022/06/25 04:18:42;;;;;;;4.55;2.05;;;15.60;99.90;;;14.93;100.00;97520.38;5047701;28;20044;-71
2022/06/25 04:21:10;;;;;;;4.38;1.80;;;15.70;99.90;;;14.98;100.00;97521.75;5043713;28;20087;-71
2022/06/25 04:23:37;;;;;;;8.70;2.05;;;15.80;99.90;;;15.02;100.00;97525.88;5043698;28;20165;-71
2022/06/25 04:26:04;;;;;;;4.47;1.50;;;15.80;99.90;;;15.16;100.00;97518.97;5044332;28;20138;-71
2022/06/25 04:31:16;;;;;;;6.60;1.83;;;16.00;99.90;;;15.19;100.00;97510.91;5045848;28;20068;-71
2022/06/25 04:33:43;;;;;;;3.33;1.80;;;16.00;99.90;;;15.25;100.00;97505.31;5045097;28;20056;-71
2022/06/25 04:36:10;;;;;;;5.35;1.58;;;16.00;99.90;;;15.20;100.00;97502.16;5046159;28;20053;-71
2022/06/25 04:38:37;;;;;;;6.50;2.42;;;16.00;99.90;;;15.21;100.00;97501.22;5043552;28;20049;-71
2022/06/25 04:41:05;;;;;;;4.32;1.70;;;16.00;99.90;;;15.16;100.00;97498.06;5045890;28;20102;-71
2022/06/25 04:43:32;;;;;;;5.20;1.75;;;16.00;99.90;;;15.04;100.00;97492.66;5042103;28;20122;-71
2022/06/25 04:45:59;;;;;;;5.15;1.80;;;16.10;99.90;;;15.11;100.00;97492.28;5048406;28;20087;-71
2022/06/25 04:48:26;;;;;;;6.82;2.00;;;16.00;99.90;;;15.26;100.00;97500.00;5043929;28;20160;-70
2022/06/25 04:50:54;;;;;;;4.88;2.10;;;16.00;99.90;;;14.97;100.00;97493.13;5044612;28;20488;-71
2022/06/25 04:53:21;;;;;;;4.95;1.92;;;16.10;99.90;;;15.04;100.00;97500.50;5046425;28;20049;-71
2022/06/25 04:55:48;;;;;;;6.47;2.72;;;16.00;99.90;;;14.93;100.00;97505.53;5045927;28;20091;-71
2022/06/25 04:58:15;;;;;;;5.75;1.60;;;16.00;99.90;;;15.25;100.00;97507.94;5043108;28;20455;-71
2022/06/25 05:00:42;;;;;;;4.50;2.20;;;16.10;99.90;;;15.04;100.00;97508.31;5042640;28;20782;-71
2022/06/25 05:03:10;;;;;;;7.35;2.05;;;16.00;99.90;;;15.30;100.00;97518.09;5043616;28;20155;-71
2022/06/25 05:05:37;;;;;;;11.68;2.50;;;16.10;99.90;;;15.31;100.00;97514.56;5044193;28;20094;-71
2022/06/25 05:08:04;;;;;;;4.80;1.60;;;16.10;99.90;;;15.23;100.00;97517.66;5046156;28;20076;-71
2022/06/25 05:10:32;;;;;;;26.00;4.05;;;16.20;99.90;;;15.17;100.00;97518.88;5045013;28;20127;-71
2022/06/25 05:13:14;;;;;;;9.07;1.95;;;16.20;99.90;;;15.14;100.00;97520.84;5043891;28;20476;-71
2022/06/25 05:15:43;;;;;;;3.00;1.67;;;16.30;99.90;;;15.31;100.00;97523.25;5048604;28;20068;-71
2022/06/25 05:18:12;;;;;;;7.38;2.15;;;16.30;99.90;;;15.57;100.00;97528.59;5044160;28;20063;-71
2022/06/25 05:20:41;;;;;;;8.52;2.72;;;16.40;99.90;;;15.58;100.00;97519.84;5045372;28;20080;-71
2022/06/25 05:23:08;;;;;;;4.78;1.63;;;16.60;99.90;;;15.86;100.00;97530.22;5042699;28;20139;-71
2022/06/25 05:25:36;;;;;;;10.10;1.95;;;16.80;99.90;;;16.09;100.00;97525.28;5045069;28;20144;-71
2022/06/25 05:28:04;;;;;;;5.70;1.98;;;16.90;99.90;;;16.17;100.00;97528.22;5045405;28;20458;-71
2022/06/25 05:30:31;;;;;;;3.08;1.60;;;17.10;99.90;;;16.38;100.00;97530.38;5043638;28;20127;-71
2022/06/25 05:32:59;;;;;;;4.13;1.65;;;17.20;99.90;;;16.63;100.00;97517.28;5045362;28;20045;-71
2022/06/25 05:35:26;;;;;;;2.33;1.35;;;17.40;99.90;;;16.82;100.00;97523.91;5046075;28;20103;-71
2022/06/25 05:37:54;;;;;;;23.80;3.63;;;17.60;99.90;;;16.34;100.00;97513.16;5045360;28;20080;-71
2022/06/25 05:40:21;;;;;;;5.82;2.17;;;17.60;99.90;;;16.44;100.00;97512.44;5047688;28;20080;-71
2022/06/25 05:42:48;;;;;;;3.65;1.52;;;17.60;99.90;;;16.36;100.00;97512.13;5046988;28;20122;-71
2022/06/25 05:45:15;;;;;;;3.75;1.77;;;17.50;99.90;;;16.12;100.00;97511.13;5047079;28;20049;-71
2022/06/25 05:47:42;;;;;;;5.00;1.60;;;17.50;99.90;;;16.09;100.00;97502.53;5048441;28;20128;-71
2022/06/25 05:50:10;;;;;;;6.80;1.30;;;17.40;99.90;;;16.33;100.00;97503.63;5051967;28;20128;-71
2022/06/25 05:52:37;;;;;;;4.32;1.60;;;17.40;99.90;;;16.29;100.00;97503.84;5050308;28;20396;-71
2022/06/25 05:55:05;;;;;;;6.65;1.60;;;17.40;99.90;;;16.55;100.00;97505.63;5049983;28;20139;-71
2022/06/25 05:57:32;;;;;;;12.73;2.60;;;17.30;99.90;;;16.08;100.00;97507.91;5053964;28;20177;-72
2022/06/25 06:00:00;;;;;;;4.20;1.35;;;17.40;99.90;;;16.47;100.00;97504.38;5050556;28;20103;-71
2022/06/25 06:02:27;;;;;;;10.57;1.85;;;17.40;99.90;;;16.38;100.00;97507.63;5046474;28;20081;-71
2022/06/25 06:04:54;;;;;;;4.22;1.40;;;17.40;99.90;;;16.79;100.00;97511.00;5065411;28;20051;-71
2022/06/25 06:07:22;;;;;;;4.70;1.17;;;17.60;99.90;;;16.84;100.00;97507.13;5051992;28;20048;-71
2022/06/25 06:09:49;;;;;;;19.65;3.33;;;17.80;99.90;;;17.03;100.00;97500.59;5050584;28;20577;-71
2022/06/25 06:12:16;;;;;;;3.15;1.20;;;18.00;99.90;;;17.21;100.00;97498.47;5051054;28;20166;-71
2022/06/25 06:14:43;;;;;;;8.55;1.55;;;18.10;99.90;;;17.50;100.00;97492.00;5057553;28;20136;-71
2022/06/25 06:17:10;;;;;;;2.97;1.40;;;18.30;99.90;;;17.79;100.00;97504.81;5047339;28;20171;-72
2022/06/25 06:19:37;;;;;;;3.67;1.10;;;18.60;99.90;;;17.53;100.00;97497.00;5051208;28;20052;-71
2022/06/25 06:22:04;;;;;;;6.10;1.52;;;18.70;99.90;;;17.45;100.00;97498.53;5051833;28;20310;-70
2022/06/25 06:24:32;;;;;;;6.15;1.25;;;18.70;99.90;;;17.73;100.00;97498.19;5050325;28;20510;-71
2022/06/25 06:27:01;;;;;;;8.50;1.55;;;18.90;99.90;;;17.92;100.00;97496.88;5048746;28;20461;-71
2022/06/25 06:29:29;;;;;;;8.20;1.40;;;19.10;99.90;;;18.01;100.00;97488.31;5054452;28;20124;-71
2022/06/25 06:31:56;;;;;;;1.83;0.93;;;19.30;99.90;;;18.68;100.00;97486.78;5049146;28;20124;-71
2022/06/25 06:34:23;;;;;;;3.60;1.10;;;19.50;99.90;;;18.62;100.00;97489.91;5047928;28;20091;-71
2022/06/25 06:36:50;;;;;;;5.40;1.50;;;19.70;99.90;;;17.66;100.00;97488.25;5051916;28;20048;-71
2022/06/25 06:39:17;;;;;;;4.32;1.40;;;19.30;99.90;;;18.16;100.00;97486.34;5047253;28;20087;-71
2022/06/25 06:41:44;;;;;;;4.07;1.40;;;19.10;99.90;;;17.54;100.00;97485.56;5046542;28;20049;-71
2022/06/25 06:44:11;;;;;;;9.35;1.70;;;18.90;99.90;;;18.15;100.00;97485.53;5047601;28;20141;-71
2022/06/25 06:46:39;;;;;;;5.75;1.27;;;19.10;99.90;;;18.57;100.00;97491.09;5050644;28;20130;-71
2022/06/25 06:49:07;;;;;;;2.08;1.00;;;;;;;18.87;100.00;97483.63;5048822;28;20143;-71
2022/06/25 06:51:34;;;;;;;6.40;1.83;;;19.90;99.90;;;18.30;100.00;97474.81;5047907;28;20148;-71
2022/06/25 06:54:01;;;;;;;3.45;1.67;;;19.80;99.90;;;17.90;100.00;97477.75;5048564;28;20080;-71
2022/06/25 06:56:28;;;;;;;4.05;1.80;;;;;;;17.94;100.00;97477.44;5064031;28;20143;-71
2022/06/25 06:58:55;;;;;;;14.60;2.35;;;19.40;99.90;;;18.46;100.00;97467.41;5049367;28;20098;-70
2022/06/25 07:01:22;;;;;;;2.30;1.15;;;19.60;99.90;;;18.96;100.00;97473.22;5044684;28;20498;-70
2022/06/25 07:03:49;;;;;;;4.03;1.20;;;19.90;99.90;;;19.59;100.00;97459.47;5045781;28;20582;-71
2022/06/25 07:06:16;;;;;;;4.60;1.30;;;20.20;99.90;;;19.25;100.00;97462.19;5044421;28;20139;-70
2022/06/25 07:08:43;;;;;;;5.38;1.92;;;20.40;99.90;;;18.92;100.00;97456.00;5047219;28;20084;-70
2022/06/25 07:11:29;;;;;;;3.67;1.10;;;20.40;99.90;;;19.45;100.00;97465.84;5047314;28;20132;-70
2022/06/25 07:14:04;;;;;;;6.72;0.98;;;20.60;99.90;;;19.75;100.00;97449.41;5046810;28;20045;-70
2022/06/25 07:16:33;;;;;;;4.00;1.10;;;20.80;99.90;;;19.69;100.00;97449.06;5041429;28;20124;-70
2022/06/25 07:19:01;;;;;;;2.15;1.00;;;20.90;99.90;;;20.23;100.00;97453.34;5046894;28;20821;-70
2022/06/25 07:21:28;;;;;;;8.23;1.20;;;21.00;99.90;;;20.01;100.00;97447.25;5047204;28;20057;-70
2022/06/25 07:23:56;;;;;;;2.85;1.00;;;21.20;99.90;;;20.18;100.00;97447.63;5048627;28;20123;-71
2022/06/25 07:26:23;;;;;;;4.07;1.00;;;21.20;99.90;;;20.37;100.00;97449.56;5047262;28;20592;-70
2022/06/25 07:28:54;;;;;;;2.13;0.90;;;21.20;99.90;;;19.77;100.00;97451.88;5045116;28;20087;-71
2022/06/25 07:31:22;;;;;;;4.00;1.00;;;21.20;99.90;;;19.39;100.00;97448.75;5044016;28;20516;-71
2022/06/25 07:33:49;;;;;;;5.35;1.10;;;21.00;99.90;;;19.43;100.00;97442.28;5044659;28;20049;-70
2022/06/25 07:36:16;;;;;;;3.75;0.80;;;20.80;99.90;;;19.83;100.00;97444.31;5045338;28;20132;-70
2022/06/25 07:38:43;;;;;;;4.60;1.05;;;20.80;99.90;;;20.14;100.00;97439.16;5048345;28;20132;-70
2022/06/25 07:41:10;;;;;;;4.05;1.05;;;20.80;99.90;;;19.95;100.00;97429.28;5046695;28;20130;-71
2022/06/25 07:43:38;;;;;;;5.40;1.20;;;20.90;99.90;;;19.50;100.00;97432.09;5045966;28;20048;-70
2022/06/25 07:46:04;;;;;;;3.75;1.10;;;20.90;99.90;;;20.37;100.00;97431.94;5046628;28;20128;-71
2022/06/25 07:48:32;;;;;;;6.47;1.00;;;21.00;99.90;;;20.41;100.00;97425.44;5045133;28;20795;-71
2022/06/25 07:53:45;;;;;;;2.80;0.82;;;21.40;99.90;;;19.70;100.00;97427.03;5047993;28;20044;-71
2022/06/25 07:56:12;;;;;;;5.63;0.90;;;21.30;99.90;;;20.22;100.00;97417.41;5043983;28;20049;-71
2022/06/25 07:58:39;;;;;;;3.70;1.10;;;21.30;99.90;;;20.34;100.00;97410.28;5046532;28;20127;-70
2022/06/25 08:01:07;;;;;;;4.25;0.93;;;21.40;99.90;;;20.92;100.00;97409.72;5047650;28;20145;-70
2022/06/25 08:03:34;;;;;;;1.27;0.60;;;21.60;99.90;;;21.45;100.00;97406.81;5043579;28;20103;-71
2022/06/25 08:06:01;;;;;;;2.35;0.73;;;21.90;99.90;;;21.37;100.00;97401.34;5046293;28;20427;-71
2022/06/25 08:08:29;;;;;;;3.15;0.85;;;22.10;99.90;;;21.44;100.00;97394.56;5046122;28;20106;-71
2022/06/25 08:10:57;;;;;;;6.07;0.70;;;22.20;99.90;;;21.50;100.00;97394.00;5045289;28;20045;-71
2022/06/25 08:13:26;;;;;;;2.65;0.60;;;22.20;99.90;;;21.30;100.00;97388.69;5043945;28;20037;-71
2022/06/25 08:15:54;;;;;;;2.95;0.73;;;22.20;99.90;;;20.80;100.00;97394.00;5046092;28;20072;-71
2022/06/25 08:18:22;;;;;;;2.45;0.80;;;22.00;99.90;;;20.41;100.00;97393.81;5045563;28;20076;-70
2022/06/25 08:20:49;;;;;;;4.93;0.80;;;21.90;99.90;;;20.94;100.00;97395.44;5046644;28;20126;-70
2022/06/25 08:23:16;;;;;;;2.63;0.82;;;21.90;99.90;;;20.84;100.00;97398.03;5045938;28;20053;-70
2022/06/25 08:25:44;;;;;;;2.80;0.73;;;21.90;99.90;;;20.72;100.00;97388.56;5047490;28;20109;-71
2022/06/25 08:28:11;;;;;;;3.70;0.80;;;21.90;99.90;;;20.32;100.00;97394.59;5044930;28;20049;-71
2022/06/25 08:30:41;;;;;;;3.67;0.80;;;21.90;99.90;;;21.00;100.00;97394.03;5046459;28;20091;-70
2022/06/25 08:33:09;;;;;;;1.90;0.85;;;21.90;99.90;;;21.50;100.00;97386.09;5044910;28;20565;-70
2022/06/25 08:35:36;;;;;;;3.42;0.80;;;22.20;99.90;;;21.25;100.00;97376.88;5042974;28;20131;-70
2022/06/25 08:38:03;;;;;;;3.13;1.10;;;22.30;99.90;;;21.87;100.00;97373.03;5044906;28;20181;-70
2022/06/25 08:40:30;;;;;;;1.75;0.70;;;22.40;99.90;;;21.90;100.00;97375.38;5035600;28;20130;-70
2022/06/25 08:42:58;;;;;;;1.42;0.70;;;22.40;99.90;;;21.85;100.00;97379.41;5041313;28;20095;-70
2022/06/25 08:45:25;;;;;;;4.50;0.90;;;22.60;99.90;;;21.26;100.00;97373.28;5045636;28;20132;-70
2022/06/25 08:47:53;;;;;;;5.45;1.42;;;22.50;99.90;;;21.45;100.00;97370.66;5045757;28;20152;-70
2022/06/25 08:50:21;;;;;;;2.58;0.80;;;22.30;99.90;;;21.37;100.00;97375.78;5044497;28;20140;-70
2022/06/25 08:52:52;;;;;;;5.35;0.77;;;22.70;99.90;;;21.94;100.00;97373.28;5045781;28;20079;-70
2022/06/25 08:55:36;;;;;;;3.35;0.60;;;22.90;99.90;;;22.46;100.00;97367.59;5043781;28;20080;-71
2022/06/25 08:58:05;;;;;;;6.50;0.70;;;23.00;99.90;;;21.98;100.00;97363.25;5044105;28;20057;-71
2022/06/25 09:00:35;;;;;;;2.45;0.80;;;23.00;99.90;;;21.70;100.00;97364.00;5046153;28;20049;-71
2022/06/25 09:03:05;;;;;;;1.75;0.65;;;23.00;99.90;;;22.41;100.00;97360.09;5046656;28;20048;-70
2022/06/25 09:05:36;;;;;;;1.67;0.57;;;23.10;99.90;;;22.59;100.00;97346.94;5059610;28;20085;-71
2022/06/25 09:08:06;;;;;;;3.40;0.60;;;23.20;99.90;;;22.57;100.00;97342.78;5044612;28;20049;-71
2022/06/25 09:10:36;;;;;;;2.55;0.65;;;23.40;99.90;;;23.20;100.00;97342.88;5045295;28;20052;-70
2022/06/25 09:13:09;;;;;;;4.25;0.60;;;23.90;99.90;;;21.89;100.00;97341.16;5042413;28;20060;-71
2022/06/25 09:15:45;;;;;;;1.70;0.55;;;23.80;99.90;;;22.60;100.00;97343.31;5042667;28;20136;-71
2022/06/25 09:18:14;;;;;;;2.83;0.77;;;23.60;99.90;;;22.12;100.00;97339.88;5045765;28;20057;-71
2022/06/25 09:21:07;;;;;;;2.88;0.60;;;23.50;99.90;;;21.88;100.00;97332.41;5042718;28;20072;-71
2022/06/25 09:23:58;;;;;;;1.05;0.40;;;23.40;99.90;;;21.80;100.00;97337.56;5043167;28;20077;-71
2022/06/25 09:26:26;;;;;;;2.70;0.60;;;23.20;99.90;;;22.71;100.00;97340.47;5048519;28;20114;-71
2022/06/25 09:28:53;;;;;;;2.25;0.70;;;23.20;99.90;;;23.54;100.00;97336.91;5045607;28;20418;-71
2022/06/25 09:31:37;;;;;;;1.40;0.50;;;23.60;99.90;;;23.42;100.00;97333.63;5050952;28;20079;-71
2022/06/25 09:34:07;;;;;;;2.75;0.52;;;24.10;99.90;;;23.64;100.00;97337.63;5045465;28;20040;-70
2022/06/25 09:36:35;;;;;;;1.40;0.50;;;24.30;99.90;;;23.23;100.00;97326.69;5046855;28;20041;-70
2022/06/25 09:39:02;;;;;;;2.60;0.60;;;24.20;99.90;;;22.65;100.00;97332.28;5045761;28;20049;-70
2022/06/25 09:41:57;;;;;;;2.95;0.52;;;24.30;99.90;;;22.05;100.00;97333.47;5048090;28;20080;-70
2022/06/25 09:44:24;;;;;;;1.55;0.68;;;24.30;99.90;;;22.88;100.00;97325.63;5049753;28;20102;-71
2022/06/25 09:46:59;;;;;;;3.30;0.60;;;24.00;99.90;;;23.38;100.00;97319.88;5050325;28;20087;-71
2022/06/25 09:49:26;;;;;;;3.88;0.50;;;24.00;99.90;;;24.66;100.00;97322.06;5048572;28;20151;-70
2022/06/25 09:52:01;;;;;;;1.23;0.40;;;24.60;99.90;;;25.17;100.00;97312.22;5048390;28;20554;-70
2022/06/25 09:54:29;;;;;;;2.00;0.70;;;25.10;99.90;;;24.87;100.00;97309.19;5044308;28;20834;-70
2022/06/25 09:56:57;;;;;;;2.78;0.60;;;25.20;99.90;;;24.31;100.00;97310.59;5061304;28;20051;-70
2022/06/25 09:59:25;;;;;;;5.18;0.60;;;25.00;99.90;;;25.60;100.00;97310.31;5044825;28;20053;-70
2022/06/25 10:01:52;;;;;;;3.40;0.65;;;;;;;25.46;100.00;97307.31;5057844;28;20478;-70
2022/06/25 10:04:21;;;;;;;2.20;0.60;;;25.80;99.90;;;25.70;100.00;97320.75;5044584;28;20060;-70
2022/06/25 10:06:49;;;;;;;1.13;0.50;;;25.90;99.90;;;25.21;100.00;97308.28;5045368;28;20059;-70
2022/06/25 10:09:18;;;;;;;6.97;0.73;;;25.90;99.90;;;25.92;100.00;97314.78;5048941;28;20152;-70
2022/06/25 10:11:45;;;;;;;5.05;0.68;;;26.20;99.90;;;24.91;100.00;97315.84;5045883;28;20041;-70
2022/06/25 10:14:12;;;;;;;1.63;0.45;;;26.40;99.90;;;26.28;100.00;97303.75;5048191;28;20124;-71
2022/06/25 10:16:40;;;;;;;5.47;0.52;;;26.60;99.90;;;26.48;100.00;97296.19;5047393;28;20094;-70
2022/06/25 10:19:14;;;;;;;3.53;0.47;;;26.60;99.90;;;25.38;100.00;97301.16;5047237;28;20057;-70
2022/06/25 10:21:42;;;;;;;1.25;0.40;;;26.40;99.90;;;27.04;100.00;97288.94;5046417;28;20138;-70
2022/06/25 10:24:09;;;;;;;1.77;0.70;;;26.70;99.90;;;27.64;100.00;97291.84;5044797;28;20147;-71
2022/06/25 10:26:36;;;;;;;2.40;0.40;;;27.50;99.90;;;28.07;100.00;97279.59;5047057;28;20628;-71
2022/06/25 10:29:24;;;;;;;1.60;0.40;;;27.60;99.90;;;27.50;100.00;97286.28;5048749;28;20512;-72
2022/06/25 10:32:15;;;;;;;1.88;0.50;;;27.30;99.90;;;27.59;100.00;97279.03;5046318;28;20125;-71